Time;durP1;ratioP1;P1;durP2;ratioP2;P2;SDS_P1;SDS_P2;PMS_P1;PMS_P2;Temp;Humidity;BMP_temperature;BMP_pressure;BME280_temperature;BME280_humidity;BME280_pressure;Samples;Min_cycle;Max_cycle;Signal;HPM_P1;HPM_P2
2022/01/12 00:01:19;;;;;;;2.40;2.20;;;4.70;99.90;;;;;;5096939;28;20043;-47
2022/01/12 00:03:45;;;;;;;2.72;2.53;;;4.70;99.90;;;;;;5132243;28;20031;-49
2022/01/12 00:06:11;;;;;;;4.97;3.17;;;4.70;99.90;;;;;;5096875;28;20027;-50
2022/01/12 00:08:37;;;;;;;3.45;3.15;;;4.60;99.90;;;;;;5096948;28;20509;-47
2022/01/12 00:11:04;;;;;;;3.22;2.92;;;4.70;99.90;;;;;;5096459;28;20027;-53
2022/01/12 00:13:30;;;;;;;3.30;3.00;;;4.70;99.90;;;;;;5114061;28;20167;-51
2022/01/12 00:15:56;;;;;;;2.65;2.45;;;4.70;99.90;;;;;;5114069;28;20028;-50
2022/01/12 00:18:22;;;;;;;3.22;3.03;;;4.70;99.90;;;;;;5113656;28;20031;-48
2022/01/12 00:20:49;;;;;;;3.38;3.08;;;4.70;99.90;;;;;;5112433;28;20033;-48
2022/01/12 00:23:15;;;;;;;2.80;2.60;;;4.80;99.90;;;;;;5113728;28;20033;-49
2022/01/12 00:26:01;;;;;;;15.75;9.88;;;4.80;99.90;;;;;;5113786;28;20054;-48
2022/01/12 00:34:00;;;;;;;4.72;3.10;;;4.80;99.90;;;;;;5113168;28;20030;-46
2022/01/12 00:36:26;;;;;;;2.83;2.63;;;4.90;99.90;;;;;;5113264;28;20032;-44
2022/01/12 00:38:51;;;;;;;3.58;2.65;;;5.00;99.90;;;;;;5094665;28;20024;-43
2022/01/12 00:41:18;;;;;;;3.35;3.05;;;4.90;99.90;;;;;;5094432;28;20028;-42
2022/01/12 00:43:47;;;;;;;2.65;2.30;;;4.80;99.90;;;;;;5095128;28;20172;-43
2022/01/12 00:46:14;;;;;;;2.20;2.00;;;4.70;99.90;;;;;;5097962;28;20038;-46
2022/01/12 00:48:40;;;;;;;2.53;2.33;;;4.70;99.90;;;;;;5097193;28;20047;-45
2022/01/12 00:51:06;;;;;;;2.60;2.40;;;4.60;99.90;;;;;;5096960;28;20023;-46
2022/01/12 00:53:31;;;;;;;2.70;2.50;;;4.60;99.90;;;;;;5097116;28;20019;-46
2022/01/12 00:55:57;;;;;;;3.20;2.90;;;4.60;99.90;;;;;;5097121;28;20540;-45
2022/01/12 00:58:22;;;;;;;2.63;2.40;;;4.60;99.90;;;;;;5096830;28;20042;-45
2022/01/12 01:00:48;;;;;;;2.90;2.60;;;4.60;99.90;;;;;;5096764;28;20126;-46
2022/01/12 01:03:15;;;;;;;3.00;2.75;;;4.60;99.90;;;;;;5096866;28;20028;-43
2022/01/12 01:05:41;;;;;;;3.30;3.00;;;4.60;99.90;;;;;;5096957;28;20110;-45
2022/01/12 01:08:07;;;;;;;3.25;2.95;;;4.60;99.90;;;;;;5096874;28;20114;-44
2022/01/12 01:13:02;;;;;;;3.10;2.88;;;4.60;99.90;;;;;;5115461;28;20032;-51
2022/01/12 01:15:57;;;;;;;3.55;3.00;;;4.60;99.90;;;;;;5096856;28;20027;-47
2022/01/12 01:26:51;;;;;;;4.50;4.03;;;4.60;99.90;;;;;;5115406;28;20093;-49
2022/01/12 01:29:17;;;;;;;3.22;2.97;;;4.50;99.90;;;;;;5095980;28;20035;-43
2022/01/12 01:31:44;;;;;;;3.50;3.20;;;4.40;99.90;;;;;;5096628;28;20462;-47
2022/01/12 01:34:12;;;;;;;4.03;3.65;;;4.40;99.90;;;;;;5096664;28;20055;-44
2022/01/12 01:36:48;;;;;;;3.15;2.85;;;4.40;99.90;;;;;;5096353;28;20024;-45
2022/01/12 01:39:16;;;;;;;4.72;4.28;;;4.40;99.90;;;;;;5095945;28;20049;-46
2022/01/12 01:41:48;;;;;;;4.60;4.10;;;4.30;99.90;;;;;;5096250;28;20036;-46
2022/01/12 01:54:55;;;;;;;5.15;4.65;;;4.20;99.90;;;;;;5113896;28;20437;-45
2022/01/12 01:57:20;;;;;;;5.28;4.30;;;4.20;99.90;;;;;;5095571;28;20399;-44
2022/01/12 01:59:47;;;;;;;6.68;5.97;;;4.20;99.90;;;;;;5095478;28;20072;-43
2022/01/12 02:02:13;;;;;;;6.60;5.57;;;4.20;99.90;;;;;;5095362;28;20514;-46
2022/01/12 02:04:39;;;;;;;5.07;4.57;;;4.20;99.90;;;;;;5095720;28;20024;-45
2022/01/12 02:07:05;;;;;;;4.75;4.22;;;4.20;99.90;;;;;;5095553;28;20060;-44
2022/01/12 02:09:31;;;;;;;4.35;3.63;;;4.20;99.90;;;;;;5113478;28;20062;-43
2022/01/12 02:11:56;;;;;;;4.35;3.92;;;4.10;99.90;;;;;;5095498;28;20031;-44
2022/01/12 02:14:22;;;;;;;4.80;4.40;;;4.10;99.90;;;;;;5113770;28;20085;-48
2022/01/12 02:16:53;;;;;;;5.03;4.53;;;4.00;99.90;;;;;;5113552;28;20031;-44
2022/01/12 02:40:56;;;;;;;6.50;5.18;;;3.80;99.90;;;;;;5112859;28;20035;-47
2022/01/12 02:53:49;;;;;;;5.35;4.78;;;3.70;99.90;;;;;;5113197;28;20391;-43
2022/01/12 02:56:20;;;;;;;5.38;4.90;;;3.80;99.90;;;;;;5094811;28;20024;-41
2022/01/12 02:58:48;;;;;;;7.05;5.75;;;3.80;99.90;;;;;;5094511;28;20492;-48
2022/01/12 03:04:01;;;;;;;8.10;6.25;;;3.90;99.90;;;;;;5112633;28;20074;-46
2022/01/12 03:06:31;;;;;;;8.60;6.20;;;3.90;99.90;;;;;;5094370;28;20209;-44
2022/01/12 03:08:57;;;;;;;7.07;5.90;;;3.80;99.90;;;;;;5094428;28;20030;-44
2022/01/12 03:11:24;;;;;;;7.00;5.75;;;3.70;99.90;;;;;;5093971;28;20031;-44
2022/01/12 03:13:51;;;;;;;7.00;5.78;;;3.70;99.90;;;;;;5094523;28;20128;-44
2022/01/12 03:16:21;;;;;;;6.38;5.43;;;3.70;99.90;;;;;;5094328;28;20024;-45
2022/01/12 03:18:50;;;;;;;5.82;5.22;;;3.50;99.90;;;;;;5094236;28;20020;-43
2022/01/12 03:21:18;;;;;;;6.88;5.55;;;3.40;99.90;;;;;;5094155;28;20034;-42
2022/01/12 03:23:45;;;;;;;5.80;4.78;;;3.30;99.90;;;;;;5094263;28;20030;-45
2022/01/12 03:26:11;;;;;;;6.00;5.30;;;3.20;99.90;;;;;;5094199;28;20023;-44
2022/01/12 03:28:38;;;;;;;6.40;5.07;;;3.10;99.90;;;;;;5093961;28;20456;-47
2022/01/12 03:38:48;;;;;;;9.60;6.80;;;3.00;99.90;;;;;;5112422;28;20039;-46
2022/01/12 03:41:14;;;;;;;10.10;8.32;;;2.90;99.90;;;;;;5111551;28;20027;-47
2022/01/12 03:43:40;;;;;;;8.70;6.95;;;2.80;99.90;;;;;;5093997;28;20035;-48
2022/01/12 03:46:06;;;;;;;8.35;6.90;;;2.70;99.90;;;;;;5093939;28;20032;-46
2022/01/12 03:48:32;;;;;;;7.70;6.25;;;2.70;99.90;;;;;;5094143;28;20487;-45
2022/01/12 03:50:57;;;;;;;9.50;7.32;;;2.70;99.90;;;;;;5093734;28;20030;-43
2022/01/12 03:53:24;;;;;;;8.65;7.22;;;2.60;99.90;;;;;;5093820;28;20479;-43
2022/01/12 03:55:50;;;;;;;7.07;6.18;;;2.60;99.90;;;;;;5093954;28;20114;-43
2022/01/12 03:58:16;;;;;;;6.15;5.55;;;2.60;99.90;;;;;;5112100;28;20039;-44
2022/01/12 04:00:41;;;;;;;6.63;5.57;;;2.70;99.90;;;;;;5111779;28;20028;-43
2022/01/12 04:03:08;;;;;;;6.45;5.72;;;2.80;99.90;;;;;;5093555;28;20399;-43
2022/01/12 04:08:20;;;;;;;8.13;5.75;;;3.00;99.90;;;;;;5111809;28;20026;-45
2022/01/12 04:10:59;;;;;;;6.38;5.68;;;2.90;99.90;;;;;;5093607;28;20028;-45
2022/01/12 04:13:27;;;;;;;6.03;5.20;;;2.90;99.90;;;;;;5093790;28;20483;-45
2022/01/12 04:15:56;;;;;;;8.55;6.50;;;2.90;99.90;;;;;;5093846;28;20027;-42
2022/01/12 04:18:21;;;;;;;7.57;5.95;;;2.90;99.90;;;;;;5112322;28;20537;-48
2022/01/12 04:20:49;;;;;;;8.57;6.43;;;3.00;99.90;;;;;;5116117;28;20111;-42
2022/01/12 04:23:17;;;;;;;7.43;6.20;;;2.90;99.90;;;;;;5098255;28;20021;-46
2022/01/12 04:25:48;;;;;;;8.48;6.53;;;2.90;99.90;;;;;;5097663;28;20031;-42
2022/01/12 04:28:16;;;;;;;9.68;6.93;;;2.80;99.90;;;;;;5097444;28;20030;-44
2022/01/12 04:30:42;;;;;;;8.93;6.72;;;2.80;99.90;;;;;;5097134;28;20371;-47
2022/01/12 04:33:09;;;;;;;7.18;6.07;;;2.70;99.90;;;;;;5097425;28;20509;-46
2022/01/12 04:35:39;;;;;;;7.78;5.97;;;2.60;99.90;;;;;;5097444;28;20024;-47
2022/01/12 04:38:05;;;;;;;7.10;5.75;;;2.60;99.90;;;;;;5097338;28;20022;-43
2022/01/12 04:40:32;;;;;;;8.88;7.18;;;2.60;99.90;;;;;;5079912;28;20394;-48
2022/01/12 04:42:58;;;;;;;7.97;6.43;;;2.50;99.90;;;;;;5097063;28;20024;-45
2022/01/12 04:50:19;;;;;;;9.48;6.90;;;2.60;99.90;;;;;;5097461;28;20064;-42
2022/01/12 04:52:44;;;;;;;10.02;6.82;;;2.60;99.90;;;;;;5080055;28;20016;-45
2022/01/12 04:55:10;;;;;;;7.30;6.00;;;2.60;99.90;;;;;;5097082;28;20031;-42
2022/01/12 04:57:35;;;;;;;8.80;6.47;;;2.60;99.90;;;;;;5097008;28;20026;-45
2022/01/12 05:00:12;;;;;;;10.18;6.68;;;2.60;99.90;;;;;;5079591;28;20085;-45
2022/01/12 05:08:20;;;;;;;9.82;7.10;;;2.60;99.90;;;;;;5099821;28;20066;-48
2022/01/12 05:13:32;;;;;;;7.40;5.40;;;2.50;99.90;;;;;;5115365;28;20073;-44
2022/01/12 05:15:58;;;;;;;5.88;5.28;;;2.40;99.90;;;;;;5096620;28;20440;-44
2022/01/12 05:18:24;;;;;;;7.97;6.32;;;2.40;99.90;;;;;;5079709;28;20016;-43
2022/01/12 05:20:50;;;;;;;9.30;6.82;;;2.30;99.90;;;;;;5095980;28;20077;-46
2022/01/12 05:23:16;;;;;;;21.08;10.30;;;2.30;99.90;;;;;;5096300;28;20028;-45
2022/01/12 05:25:41;;;;;;;17.17;8.88;;;2.30;99.90;;;;;;5096414;28;20056;-46
2022/01/12 05:28:07;;;;;;;11.00;7.35;;;2.30;99.90;;;;;;5114366;28;20028;-48
2022/01/12 05:30:33;;;;;;;9.23;6.85;;;2.40;99.90;;;;;;5095630;28;20023;-47
2022/01/12 05:33:00;;;;;;;8.00;6.50;;;2.40;99.90;;;;;;5096107;28;20422;-47
2022/01/12 05:35:31;;;;;;;9.38;6.90;;;2.40;99.90;;;;;;5096116;28;20154;-47
2022/01/12 05:37:58;;;;;;;9.15;6.55;;;2.40;99.90;;;;;;5096272;28;20024;-44
2022/01/12 05:40:24;;;;;;;59.67;40.40;;;2.40;99.90;;;;;;5114125;28;20460;-46
2022/01/12 05:42:51;;;;;;;21.35;15.15;;;2.40;99.90;;;;;;5113737;28;20028;-42
2022/01/12 05:45:19;;;;;;;16.02;9.07;;;2.40;99.90;;;;;;5095907;28;20030;-48
2022/01/12 05:50:16;;;;;;;8.95;6.57;;;2.40;99.90;;;;;;5114172;28;20034;-45
2022/01/12 05:52:41;;;;;;;9.60;7.15;;;2.50;99.90;;;;;;5095861;28;20611;-44
2022/01/12 05:55:09;;;;;;;12.13;7.40;;;2.40;99.90;;;;;;5095868;28;20024;-46
2022/01/12 05:57:35;;;;;;;7.45;5.93;;;2.40;99.90;;;;;;5095357;28;20073;-49
2022/01/12 06:00:03;;;;;;;8.90;5.93;;;2.30;99.90;;;;;;5095351;28;20024;-49
2022/01/12 06:02:29;;;;;;;9.63;6.97;;;2.30;99.90;;;;;;5095834;28;20059;-46
2022/01/12 06:04:55;;;;;;;8.20;6.30;;;2.20;99.90;;;;;;5096158;28;20079;-42
2022/01/12 06:07:21;;;;;;;7.78;6.68;;;2.20;99.90;;;;;;5078865;28;20034;-47
2022/01/12 06:09:46;;;;;;;9.70;7.18;;;2.10;99.90;;;;;;5094946;28;20471;-45
2022/01/12 06:12:12;;;;;;;8.25;6.35;;;2.00;99.90;;;;;;5095385;28;20027;-44
2022/01/12 06:14:37;;;;;;;10.52;6.70;;;2.00;99.90;;;;;;5095439;28;20467;-48
2022/01/12 06:17:03;;;;;;;9.13;6.65;;;2.00;99.90;;;;;;5113736;28;20020;-45
2022/01/12 06:19:29;;;;;;;10.30;6.80;;;2.00;99.90;;;;;;5094783;28;20028;-42
2022/01/12 06:25:16;;;;;;;9.68;6.68;;;2.00;99.90;;;;;;5112359;28;20022;-45
2022/01/12 06:28:08;;;;;;;10.93;6.68;;;2.00;99.90;;;;;;5078487;28;20027;-45
2022/01/12 06:33:18;;;;;;;8.48;6.90;;;2.00;99.90;;;;;;5113178;28;20042;-47
2022/01/12 06:35:44;;;;;;;8.85;6.95;;;1.90;99.90;;;;;;5094606;28;20111;-47
2022/01/12 06:38:09;;;;;;;10.48;7.07;;;1.90;99.90;;;;;;5094762;28;20494;-47
2022/01/12 06:40:35;;;;;;;10.70;7.32;;;1.80;99.90;;;;;;5094134;28;20115;-48
2022/01/12 06:43:02;;;;;;;12.02;7.85;;;1.80;99.90;;;;;;5093423;28;20073;-46
2022/01/12 06:45:28;;;;;;;9.25;7.20;;;1.80;99.90;;;;;;5094601;28;20027;-44
2022/01/12 06:47:53;;;;;;;9.85;7.15;;;1.80;99.90;;;;;;5094515;28;20051;-48
2022/01/12 06:50:19;;;;;;;13.38;7.93;;;1.70;99.90;;;;;;5093946;28;20886;-48
2022/01/12 06:52:44;;;;;;;10.13;7.95;;;1.70;99.90;;;;;;5094562;28;20026;-46
2022/01/12 06:55:10;;;;;;;12.18;8.63;;;1.70;99.90;;;;;;5113172;28;20023;-48
2022/01/12 06:57:36;;;;;;;19.85;15.40;;;1.70;99.90;;;;;;5094296;28;20019;-47
2022/01/12 07:00:04;;;;;;;14.23;10.77;;;1.70;99.90;;;;;;5077385;28;20055;-48
2022/01/12 07:02:30;;;;;;;23.15;10.45;;;1.70;99.90;;;;;;5094121;28;20167;-46
2022/01/12 07:04:55;;;;;;;10.73;8.60;;;1.70;99.90;;;;;;5094286;28;20040;-46
2022/01/12 07:07:23;;;;;;;18.98;9.82;;;1.70;99.90;;;;;;5094322;28;20023;-45
2022/01/12 07:09:49;;;;;;;12.85;9.90;;;1.70;99.90;;;;;;5093659;28;20115;-45
2022/01/12 07:12:16;;;;;;;13.13;9.98;;;1.60;99.90;;;;;;5094047;28;20423;-46
2022/01/12 07:14:41;;;;;;;15.15;10.80;;;1.60;99.90;;;;;;5094420;28;20023;-46
2022/01/12 07:17:08;;;;;;;17.60;9.50;;;1.50;99.90;;;;;;5094286;28;20023;-47
2022/01/12 07:19:34;;;;;;;12.73;9.82;;;1.50;99.90;;;;;;5093595;28;20071;-45
2022/01/12 07:21:59;;;;;;;14.60;9.15;;;1.50;99.90;;;;;;5094082;28;20020;-48
2022/01/12 07:24:25;;;;;;;12.27;8.93;;;1.50;99.90;;;;;;5093932;28;20039;-47
2022/01/12 07:26:50;;;;;;;11.20;8.35;;;1.50;99.90;;;;;;5095207;28;20019;-49
2022/01/12 07:29:16;;;;;;;12.30;10.15;;;1.50;99.90;;;;;;5093957;28;20031;-47
2022/01/12 07:31:41;;;;;;;13.20;8.85;;;1.50;99.90;;;;;;5093903;28;20024;-46
2022/01/12 07:34:07;;;;;;;12.38;7.93;;;1.50;99.90;;;;;;5093642;28;20019;-48
2022/01/12 07:36:33;;;;;;;11.23;8.55;;;1.50;99.90;;;;;;5093554;28;20134;-47
2022/01/12 07:38:59;;;;;;;14.60;9.57;;;1.50;99.90;;;;;;5093513;28;20051;-46
2022/01/12 07:41:25;;;;;;;14.02;8.93;;;1.60;99.90;;;;;;5093276;28;20245;-44
2022/01/12 07:43:50;;;;;;;13.00;8.65;;;1.60;99.90;;;;;;5093532;28;20115;-47
2022/01/12 07:46:16;;;;;;;12.63;9.35;;;1.60;99.90;;;;;;5093726;28;20544;-47
2022/01/12 07:48:41;;;;;;;13.77;8.80;;;1.70;99.90;;;;;;5093801;28;20055;-48
2022/01/12 07:51:08;;;;;;;20.13;8.50;;;1.70;99.90;;;;;;5093182;28;20077;-51
2022/01/12 07:53:34;;;;;;;12.02;8.35;;;1.70;99.90;;;;;;5094038;28;20023;-47
2022/01/12 07:56:00;;;;;;;12.02;8.57;;;1.70;99.90;;;;;;5097786;28;20038;-47
2022/01/12 07:58:25;;;;;;;10.93;8.27;;;1.70;99.90;;;;;;5097667;28;20019;-47
2022/01/12 08:00:51;;;;;;;12.65;8.35;;;1.80;99.90;;;;;;5115458;28;20390;-46
2022/01/12 08:03:20;;;;;;;11.82;8.43;;;1.90;99.90;;;;;;5097537;28;20121;-45
2022/01/12 08:05:46;;;;;;;12.88;8.75;;;2.00;99.90;;;;;;5097605;28;20028;-46
2022/01/12 08:08:12;;;;;;;13.98;9.90;;;2.00;99.90;;;;;;5097506;28;20036;-50
2022/01/12 08:10:38;;;;;;;11.63;8.52;;;2.10;99.90;;;;;;5097052;28;20027;-47
2022/01/12 08:13:03;;;;;;;12.40;8.93;;;2.10;99.90;;;;;;5095914;28;20376;-46
2022/01/12 08:15:29;;;;;;;19.27;10.18;;;2.10;99.90;;;;;;5077544;28;20031;-50
2022/01/12 08:17:55;;;;;;;15.10;10.07;;;2.10;99.90;;;;;;5084550;28;20521;-47
2022/01/12 08:20:25;;;;;;;13.50;9.00;;;2.10;99.90;;;;;;5097838;28;20395;-48
2022/01/12 08:22:51;;;;;;;16.15;9.05;;;2.10;99.90;;;;;;5097868;28;20058;-46
2022/01/12 08:25:17;;;;;;;15.63;9.88;;;2.20;99.90;;;;;;5094920;28;20893;-51
2022/01/12 08:27:42;;;;;;;13.40;9.27;;;2.20;99.90;;;;;;5079091;28;20032;-48
2022/01/12 08:30:16;;;;;;;14.00;9.32;;;2.30;99.90;;;;;;5096733;28;20068;-47
2022/01/12 08:32:42;;;;;;;18.00;10.25;;;2.30;99.90;;;;;;5096588;28;20028;-46
2022/01/12 08:35:08;;;;;;;15.18;9.88;;;2.30;99.90;;;;;;5096449;28;20034;-46
2022/01/12 08:37:34;;;;;;;14.00;9.13;;;2.30;99.90;;;;;;5092465;28;20028;-46
2022/01/12 08:39:59;;;;;;;15.55;9.90;;;2.30;99.90;;;;;;5109131;28;20019;-46
2022/01/12 08:42:25;;;;;;;18.48;10.75;;;2.30;99.90;;;;;;5087521;28;20069;-47
2022/01/12 08:44:50;;;;;;;17.90;11.68;;;2.30;99.90;;;;;;5095296;28;20019;-46
2022/01/12 08:47:16;;;;;;;17.17;10.95;;;2.30;99.90;;;;;;5115178;28;20034;-46
2022/01/12 08:49:42;;;;;;;16.83;11.30;;;2.30;99.90;;;;;;5114098;28;20019;-45
2022/01/12 08:52:07;;;;;;;15.27;9.10;;;2.30;99.90;;;;;;5096296;28;20020;-51
2022/01/12 08:54:33;;;;;;;14.07;9.43;;;2.30;99.90;;;;;;5096414;28;20019;-46
2022/01/12 08:56:59;;;;;;;13.18;8.52;;;2.30;99.90;;;;;;5113519;28;20382;-51
2022/01/12 08:59:24;;;;;;;12.65;8.05;;;2.20;99.90;;;;;;5103764;28;20020;-49
2022/01/12 09:01:50;;;;;;;13.77;7.90;;;2.20;99.90;;;;;;5114780;28;20474;-57
2022/01/12 09:04:15;;;;;;;12.70;8.48;;;2.40;99.90;;;;;;5084565;28;20051;-46
2022/01/12 09:06:41;;;;;;;11.93;7.05;;;3.20;99.90;;;;;;5092369;28;20031;-47
2022/01/12 09:09:06;;;;;;;12.15;7.45;;;4.20;99.90;;;;;;5095687;28;20076;-46
2022/01/12 09:11:32;;;;;;;8.93;6.20;;;5.40;99.90;;;;;;5096227;28;20019;-48
2022/01/12 09:13:58;;;;;;;8.70;6.50;;;6.50;99.90;;;;;;5096296;28;20027;-47
2022/01/12 09:16:24;;;;;;;9.00;5.93;;;7.40;99.90;;;;;;5096239;28;20114;-48
2022/01/12 09:18:49;;;;;;;12.75;6.25;;;8.00;99.90;;;;;;5096006;28;20123;-45
2022/01/12 09:21:15;;;;;;;7.03;5.85;;;8.60;98.90;;;;;;5114250;28;20020;-46
2022/01/12 09:23:43;;;;;;;7.00;6.10;;;9.20;97.40;;;;;;5096194;28;20031;-49
2022/01/12 09:26:09;;;;;;;7.05;5.88;;;9.60;96.80;;;;;;5096070;28;20028;-45
2022/01/12 09:28:34;;;;;;;20.23;13.23;;;10.10;95.00;;;;;;5095974;28;20039;-45
2022/01/12 09:31:00;;;;;;;10.75;8.15;;;10.40;94.90;;;;;;5095400;28;20031;-46
2022/01/12 09:33:26;;;;;;;7.43;6.28;;;10.80;93.90;;;;;;5095995;28;20064;-46
2022/01/12 09:35:53;;;;;;;9.50;5.65;;;10.90;92.10;;;;;;5095836;28;20050;-47
2022/01/12 09:38:20;;;;;;;6.03;5.40;;;10.90;92.30;;;;;;5095738;28;20106;-46
2022/01/12 09:40:46;;;;;;;8.05;6.63;;;10.90;91.90;;;;;;5095231;28;20055;-46
2022/01/12 09:43:12;;;;;;;6.22;5.57;;;10.90;91.60;;;;;;5095740;28;20068;-46
2022/01/12 09:45:39;;;;;;;7.30;5.75;;;10.60;91.50;;;;;;5095656;28;20036;-47
2022/01/12 09:48:05;;;;;;;6.28;5.72;;;10.60;91.80;;;;;;5095676;28;20513;-45
2022/01/12 09:50:31;;;;;;;8.80;6.20;;;10.80;91.20;;;;;;5095073;28;20047;-49
2022/01/12 09:52:57;;;;;;;5.97;5.30;;;10.70;91.50;;;;;;5095531;28;20027;-47
2022/01/12 09:55:23;;;;;;;7.10;6.00;;;11.50;90.30;;;;;;5095362;28;20478;-48
2022/01/12 09:57:49;;;;;;;7.55;6.15;;;10.90;90.70;;;;;;5095161;28;20051;-46
2022/01/12 10:00:21;;;;;;;8.88;6.22;;;10.90;91.50;;;;;;5094855;28;20064;-46
2022/01/12 10:02:46;;;;;;;6.82;6.13;;;10.40;92.20;;;;;;5095396;28;20402;-46
2022/01/12 10:05:12;;;;;;;8.98;7.07;;;9.90;93.40;;;;;;5113541;28;20032;-47
2022/01/12 10:07:38;;;;;;;9.35;7.53;;;9.30;94.80;;;;;;5095454;28;20035;-47
2022/01/12 10:10:09;;;;;;;11.90;8.10;;;8.80;96.20;;;;;;5095023;28;20050;-45
2022/01/12 10:12:35;;;;;;;8.85;7.63;;;8.50;97.30;;;;;;5095692;28;20403;-46
2022/01/12 10:15:11;;;;;;;8.73;7.82;;;8.20;98.20;;;;;;5095529;28;20024;-48
2022/01/12 10:17:38;;;;;;;11.20;8.35;;;8.00;98.80;;;;;;5094399;28;20019;-48
2022/01/12 10:20:06;;;;;;;13.27;8.73;;;7.60;99.60;;;;;;5094566;28;20114;-44
2022/01/12 10:22:32;;;;;;;13.35;8.63;;;7.30;99.90;;;;;;5094903;28;20031;-47
2022/01/12 10:25:01;;;;;;;15.27;9.70;;;7.20;99.90;;;;;;5094771;28;20019;-46
2022/01/12 10:27:27;;;;;;;12.15;8.77;;;7.00;99.90;;;;;;5095402;28;20033;-46
2022/01/12 10:29:57;;;;;;;10.93;8.90;;;7.00;99.90;;;;;;5094276;28;20554;-46
2022/01/12 10:32:23;;;;;;;15.15;8.90;;;6.90;99.90;;;;;;5113098;28;20523;-45
2022/01/12 10:34:50;;;;;;;18.55;12.20;;;6.80;99.90;;;;;;5094617;28;20111;-51
2022/01/12 10:37:27;;;;;;;14.90;10.52;;;6.80;99.90;;;;;;5093000;28;20495;-50
2022/01/12 10:39:55;;;;;;;10.88;8.68;;;7.00;99.90;;;;;;5089866;28;20032;-47
2022/01/12 10:42:24;;;;;;;12.93;8.43;;;7.40;99.90;;;;;;5112029;28;20039;-48
2022/01/12 10:44:53;;;;;;;9.43;7.68;;;7.40;99.90;;;;;;5112352;28;20051;-46
2022/01/12 10:47:24;;;;;;;14.32;8.57;;;7.70;99.90;;;;;;5094037;28;20024;-47
2022/01/12 10:49:55;;;;;;;13.80;10.27;;;8.00;99.90;;;;;;5091440;28;20147;-47
2022/01/12 10:52:48;;;;;;;13.93;8.27;;;8.30;99.90;;;;;;5112644;28;20019;-50
2022/01/12 10:55:15;;;;;;;10.23;8.35;;;8.30;99.80;;;;;;5112160;28;20085;-49
2022/01/12 10:57:45;;;;;;;11.70;8.75;;;8.30;99.60;;;;;;5094185;28;20062;-49
2022/01/12 11:00:18;;;;;;;9.18;7.40;;;8.20;99.90;;;;;;5111829;28;20084;-48
2022/01/12 11:02:48;;;;;;;12.60;9.25;;;8.10;99.90;;;;;;5093086;28;20069;-48
2022/01/12 11:05:14;;;;;;;11.73;8.35;;;8.20;99.90;;;;;;5094193;28;20027;-47
2022/01/12 11:07:40;;;;;;;10.45;8.38;;;8.20;99.80;;;;;;5094257;28;20668;-53
2022/01/12 11:10:08;;;;;;;13.73;8.95;;;8.10;99.90;;;;;;5069806;28;20020;-50
2022/01/12 11:12:35;;;;;;;13.90;9.25;;;8.00;99.90;;;;;;5095630;28;20016;-50
2022/01/12 11:15:05;;;;;;;15.25;9.50;;;7.90;99.90;;;;;;5096283;28;20475;-47
2022/01/12 11:17:31;;;;;;;12.68;8.73;;;7.80;99.90;;;;;;5079077;28;20047;-52
2022/01/12 11:20:25;;;;;;;12.63;8.25;;;7.70;99.90;;;;;;5093981;28;20066;-47
2022/01/12 11:23:02;;;;;;;9.90;8.18;;;7.50;99.90;;;;;;5093314;28;20035;-47
2022/01/12 11:25:32;;;;;;;11.52;8.30;;;7.40;99.90;;;;;;5086322;28;20079;-47
2022/01/12 11:28:17;;;;;;;11.30;8.20;;;7.30;99.90;;;;;;5100206;28;20077;-45
2022/01/12 11:30:48;;;;;;;9.85;7.95;;;7.30;99.90;;;;;;5073140;28;20051;-45
2022/01/12 11:33:15;;;;;;;11.98;8.98;;;;;;;;;;5111840;28;20016;-50
2022/01/12 11:35:43;;;;;;;11.50;9.02;;;7.60;99.90;;;;;;5112986;28;20052;-52
2022/01/12 11:38:21;;;;;;;9.77;7.13;;;7.20;99.90;;;;;;5113624;28;20460;-51
2022/01/12 11:40:47;;;;;;;9.43;7.13;;;6.90;99.90;;;;;;5094246;28;20470;-48
2022/01/12 11:43:18;;;;;;;9.10;7.25;;;6.90;99.90;;;;;;5101653;28;20044;-45
2022/01/12 11:45:44;;;;;;;10.35;7.47;;;6.80;99.90;;;;;;5092018;28;20070;-49
2022/01/12 11:48:10;;;;;;;10.32;8.50;;;6.70;99.90;;;;;;5109775;28;20495;-45
2022/01/12 11:50:35;;;;;;;8.05;6.47;;;6.70;99.90;;;;;;5109816;28;20031;-50
2022/01/12 11:53:01;;;;;;;6.57;5.88;;;6.70;99.90;;;;;;5100772;28;20537;-46
2022/01/12 11:55:34;;;;;;;5.47;4.88;;;6.80;99.90;;;;;;5099410;28;20020;-46
2022/01/12 11:58:03;;;;;;;10.45;6.78;;;6.90;98.90;;;;;;5092879;28;20015;-46
2022/01/12 12:00:30;;;;;;;8.65;7.05;;;6.60;99.90;;;;;;5092291;28;20478;-49
2022/01/12 12:02:57;;;;;;;9.85;5.68;;;6.70;99.90;;;;;;5093684;28;20027;-48
2022/01/12 12:05:27;;;;;;;6.35;5.63;;;6.60;99.20;;;;;;5111342;28;20031;-47
2022/01/12 12:08:02;;;;;;;6.70;5.97;;;6.40;99.30;;;;;;5111820;28;20020;-46
2022/01/12 12:10:29;;;;;;;6.55;5.60;;;6.40;99.80;;;;;;5111555;28;20027;-46
2022/01/12 12:12:56;;;;;;;6.72;5.95;;;6.40;99.80;;;;;;5111227;28;20665;-46
2022/01/12 12:15:24;;;;;;;5.93;4.72;;;6.50;99.30;;;;;;5093383;28;20016;-49
2022/01/12 12:17:50;;;;;;;5.20;4.45;;;6.50;99.90;;;;;;5111502;28;20109;-46
2022/01/12 12:20:17;;;;;;;6.15;5.55;;;6.30;99.50;;;;;;5111575;28;20107;-46
2022/01/12 12:22:46;;;;;;;5.28;4.30;;;6.40;99.30;;;;;;5065839;28;20081;-45
2022/01/12 12:25:20;;;;;;;6.50;4.72;;;6.40;98.80;;;;;;5090941;28;20028;-48
2022/01/12 12:27:51;;;;;;;5.35;4.82;;;6.60;99.00;;;;;;5073062;28;20462;-45
2022/01/12 12:30:19;;;;;;;9.27;6.13;;;6.50;99.30;;;;;;5072539;28;20032;-48
2022/01/12 12:32:50;;;;;;;6.20;5.25;;;6.50;99.20;;;;;;5087398;28;20031;-50
2022/01/12 12:35:18;;;;;;;5.68;5.05;;;6.60;99.00;;;;;;5108575;28;20020;-46
2022/01/12 12:37:47;;;;;;;5.95;5.28;;;6.60;99.40;;;;;;5111025;28;20077;-49
2022/01/12 12:40:21;;;;;;;6.97;5.75;;;6.70;99.00;;;;;;5112300;28;20049;-48
2022/01/12 12:43:21;;;;;;;6.15;5.20;;;6.60;99.20;;;;;;5107438;28;20436;-50
2022/01/12 12:45:52;;;;;;;6.82;5.32;;;6.70;99.20;;;;;;5115165;28;20019;-47
2022/01/12 12:48:20;;;;;;;4.65;4.25;;;6.70;99.60;;;;;;5114177;28;20088;-49
2022/01/12 12:50:47;;;;;;;7.82;5.18;;;6.60;99.70;;;;;;5115002;28;20102;-50
2022/01/12 12:53:14;;;;;;;7.13;4.50;;;6.60;99.90;;;;;;5096310;28;20015;-47
2022/01/12 12:55:45;;;;;;;6.65;4.90;;;6.50;99.10;;;;;;5101208;28;20024;-50
2022/01/12 12:58:13;;;;;;;5.82;4.85;;;6.20;99.70;;;;;;5077194;28;20103;-49
2022/01/12 13:00:39;;;;;;;5.85;5.30;;;6.10;99.60;;;;;;5071640;28;20023;-45
2022/01/12 13:03:06;;;;;;;5.38;4.88;;;6.10;99.70;;;;;;5114472;28;20023;-46
2022/01/12 13:05:33;;;;;;;7.75;5.85;;;6.20;99.70;;;;;;5114637;28;20479;-47
2022/01/12 13:07:59;;;;;;;6.63;5.93;;;6.10;99.70;;;;;;5091055;28;20046;-47
2022/01/12 13:10:32;;;;;;;6.43;5.63;;;6.10;99.90;;;;;;5113278;28;20024;-47
2022/01/12 13:13:07;;;;;;;6.78;5.90;;;6.00;99.90;;;;;;5095931;28;20032;-46
2022/01/12 13:15:37;;;;;;;;;;;6.10;99.90;;;;;;5095131;28;20024;-49
2022/01/12 13:18:14;;;;;;;8.05;5.63;;;6.10;99.90;;;;;;5075863;28;19904;-50
2022/01/12 13:23:31;;;;;;;7.90;6.63;;;6.10;99.90;;;;;;5102679;28;20027;-48
2022/01/12 13:26:01;;;;;;;7.13;6.07;;;6.10;99.90;;;;;;5113826;28;20039;-49
2022/01/12 13:28:27;;;;;;;8.82;6.15;;;6.10;99.90;;;;;;5113625;28;20116;-47
2022/01/12 13:30:59;;;;;;;9.35;6.78;;;6.10;99.90;;;;;;5076227;28;20086;-44
2022/01/12 13:33:37;;;;;;;6.90;5.68;;;6.20;99.90;;;;;;5060179;28;20054;-45
2022/01/12 13:36:21;;;;;;;6.15;5.55;;;6.10;99.90;;;;;;5067411;28;20016;-46
2022/01/12 13:38:53;;;;;;;6.72;5.75;;;6.20;99.90;;;;;;5092507;28;20023;-46
2022/01/12 13:41:28;;;;;;;55.90;32.83;;;6.30;99.90;;;;;;5092672;28;20049;-47
2022/01/12 13:43:58;;;;;;;18.63;11.75;;;6.50;99.90;;;;;;5092766;28;20092;-48
2022/01/12 13:47:20;;;;;;;30.73;18.60;;;6.30;99.90;;;;;;5092326;28;20503;-45
2022/01/12 13:49:46;;;;;;;8.40;7.22;;;6.20;99.90;;;;;;5075137;28;20043;-46
2022/01/12 13:52:12;;;;;;;8.13;5.40;;;6.20;99.90;;;;;;5092402;28;20024;-47
2022/01/12 13:54:40;;;;;;;12.35;6.82;;;6.20;99.90;;;;;;5092430;28;20391;-45
2022/01/12 13:57:09;;;;;;;6.97;6.15;;;6.10;99.90;;;;;;5092247;28;20142;-46
2022/01/12 13:59:49;;;;;;;7.32;5.70;;;6.10;99.90;;;;;;5091684;28;20027;-51
2022/01/12 14:02:17;;;;;;;8.15;7.35;;;6.10;99.90;;;;;;5093379;28;20032;-44
2022/01/12 14:04:53;;;;;;;8.82;7.38;;;6.30;99.90;;;;;;5093106;28;20027;-47
2022/01/12 14:07:22;;;;;;;;;;;6.20;99.90;;;;;;5092346;28;20115;-44
2022/01/12 14:09:55;;;;;;;9.43;6.85;;;6.30;99.90;;;;;;5091587;28;19935;-47
2022/01/12 14:12:24;;;;;;;8.52;7.28;;;6.30;99.90;;;;;;5113422;28;20068;-45
2022/01/12 14:14:58;;;;;;;9.77;6.50;;;6.20;99.90;;;;;;5095245;28;20080;-45
2022/01/12 14:17:26;;;;;;;10.02;6.55;;;6.20;99.90;;;;;;5095037;28;20066;-44
2022/01/12 14:20:05;;;;;;;7.90;6.82;;;6.10;99.90;;;;;;5111950;28;20557;-45
2022/01/12 14:22:43;;;;;;;9.02;6.10;;;6.10;99.90;;;;;;5093258;28;20132;-49
2022/01/12 14:25:09;;;;;;;10.40;7.43;;;6.00;99.90;;;;;;5094454;28;20110;-45
2022/01/12 14:27:45;;;;;;;11.57;7.45;;;6.00;99.90;;;;;;5094768;28;20031;-46
2022/01/12 14:30:14;;;;;;;10.70;6.60;;;6.20;99.90;;;;;;5094037;28;20084;-45
2022/01/12 14:32:40;;;;;;;11.00;6.97;;;6.30;99.90;;;;;;5113508;28;20055;-46
2022/01/12 14:35:09;;;;;;;9.65;7.15;;;6.20;99.90;;;;;;5112831;28;20031;-45